Tiempo atmosférico en la estación meteorológica de Agaete, Las Palmas (5 m.)

Fecha
DESCASC
Temp. máxima en grados centígrados (hora)
DESCASC
Temp. mínima en grados centígrados (hora)
DESCASC
Temp. media en grados centígrados
DESCASC
Racha de viento máxima en m/sg (hora)
DESCASC
Velocidad máxima media en intervalos de 10 minutos(hora)
DESCASC
Precipitaciones diarias en mm
DESCASC
Precipitaciones de 00:00 a 06:00 en mm
DESCASC
Precipitaciones de 06:00 a 12:00 en mm
DESCASC
Precipitaciones de 12:00 a 18:00 en mm
DESCASC
Precipitaciones de 18:00 a 24:00 en mm
DESCASC
19-10-2017 25.6 (16:00) 21.3 (03:40) 23.4 10.56 (14:40) 8.33 (14:40) 0 0 0 0 0
18-10-2017 -- (--) -- (--) -- -- (--) -- (--) -- 0 0 -- 0
17-10-2017 28.4 (12:50) 23 (23:30) 25.7 11.67 (16:10) 8.61 (14:40) 0 0 0 0 0
16-10-2017 27.6 (16:20) 23.2 (04:20) 25.4 7.22 (19:10) 5 (18:40) 0 0 0 0 0
15-10-2017 31.4 (07:10) 24.6 (00:00) 28 6.11 (07:00) 4.17 (07:00) 0 0 0 0 0
14-10-2017 37 (13:30) 23.8 (00:00) 30.4 15.56 (13:50) 9.17 (13:50) 0 0 0 0 0
13-10-2017 29.2 (23:30) 22.6 (00:00) 25.9 7.78 (23:10) 3.89 (23:50) 0 0 0 0 0
12-10-2017 26.7 (13:10) 22 (00:00) 24.4 6.67 (01:40) 5 (18:30) 0 0 0 0 0
11-10-2017 26.9 (14:40) 19.8 (00:00) 23.3 10.28 (16:10) 6.94 (16:30) 0 0 0 0 0
10-10-2017 25.9 (11:00) 21 (00:00) 23.4 8.06 (12:10) 5 (12:20) 0 0 0 0 0
09-10-2017 25.2 (15:10) 20.9 (00:00) 23.1 6.94 (18:40) 5 (18:00) 0 0 0 0 0
08-10-2017 25.4 (17:00) 21.1 (00:00) 23.3 8.61 (16:10) 6.11 (17:50) 0 0 0 0 0
07-10-2017 25.4 (11:50) 22.1 (00:00) 23.8 7.78 (16:10) 6.11 (16:20) 0 0 0 0 0
06-10-2017 25.8 (10:20) 21.5 (00:00) 23.6 5.83 (17:10) 3.89 (16:50) 0 0 0 0 0
05-10-2017 25.8 (17:50) 20.6 (00:00) 23.2 5.56 (02:40) 3.33 (02:40) 0 0 0 0 0
04-10-2017 25.4 (14:20) 22.4 (00:00) 23.9 9.72 (16:10) 6.67 (16:50) 0 0 0 0 0
03-10-2017 25 (14:40) 21.9 (00:00) 23.4 12.5 (14:10) 8.61 (16:00) 0 0 0 0 0
02-10-2017 25.9 (14:30) 22.2 (00:00) 24.1 12.78 (18:10) 7.5 (00:10) 0 0 0 0 0
01-10-2017 25.6 (14:10) 22.4 (00:00) 24 13.06 (14:40) 8.89 (15:00) 0 0 0 0 0
30-09-2017 25.4 (13:20) 22.1 (00:00) 23.8 10.56 (20:10) 6.39 (12:20) 0 0 0 0 0
29-09-2017 25.6 (15:30) 21.7 (00:00) 23.7 12.22 (13:10) 8.61 (14:00) 0 0 0 0 0
28-09-2017 26 (17:30) 22.5 (00:00) 24.3 13.89 (14:10) 8.61 (15:10) 0 0 0 0 0
27-09-2017 29.4 (17:00) 23.1 (00:00) 26.3 13.06 (18:10) 8.61 (16:10) 0 0 0 0 0
26-09-2017 26.8 (18:40) 22.4 (00:00) 24.6 7.5 (02:40) 5 (14:50) 0 0 0 0 0
25-09-2017 27.6 (15:30) 22.4 (00:00) 25 11.39 (00:20) 6.39 (01:30) 0 0 0 0 0
24-09-2017 27.8 (16:10) 21.6 (00:00) 24.7 11.11 (00:30) 6.39 (15:20) 0 0 0 0 0
23-09-2017 23.2 (13:20) 21.6 (00:00) 22.4 15.28 (20:10) 8.06 (20:00) 0 0 0 0 0
22-09-2017 25 (13:10) 21.6 (00:00) 23.3 13.61 (17:10) 7.78 (23:00) 0.2 0.2 0 0 0
21-09-2017 24.8 (13:40) 21.8 (00:00) 23.3 12.22 (14:10) 6.94 (14:10) 0 0 0 0 0
20-09-2017 26.8 (15:00) 22 (00:00) 24.4 15 (14:10) 8.61 (15:40) 0 0 0 0 0

Gráficas

Temp. máximas Temp. mínimas Temp. medias Precipitaciones Rachas de viento máximas Velocidades máximas media en intervalos de 10 minutos

Datos horarios

Fecha y hora oficial Temperatura (ºC) Velocidad del viento (km/h) Dirección del viento Racha (km/h) Dirección de racha Precipitación (mm) Presión (hPa) Tendencia (hPa) Humedad (%)
2017-10-19 23:00:00 23 13 Nordeste 27 Nordeste 0 -- -- 78
2017-10-19 22:00:00 23 15 Nordeste 27 Nordeste 0 -- -- 75
2017-10-19 21:00:00 23.1 14 Nordeste 25 Nordeste 0 -- -- 75
2017-10-19 20:00:00 23.5 11 Nordeste 24 Norte 0 -- -- 73
2017-10-19 19:00:00 24.7 11 Nordeste 28 Norte 0 -- -- 66
2017-10-19 18:00:00 24.8 19 Norte 33 Norte 0 -- -- 65
2017-10-19 17:00:00 25.4 21 Norte 33 Norte 0 -- -- 65
2017-10-19 16:00:00 25.6 19 Norte 32 Norte 0 -- -- 63
2017-10-19 15:00:00 25 15 Norte 38 Norte 0 -- -- 70
2017-10-19 14:00:00 24.9 21 Norte 37 Norte 0 -- -- 69
2017-10-19 13:00:00 24.8 20 Norte 28 Norte 0 -- -- 68
2017-10-19 12:00:00 24.6 14 Nordeste 28 Este 0 -- -- 68
2017-10-19 11:00:00 24.1 14 Nordeste 24 Nordeste 0 -- -- 72
2017-10-19 10:00:00 22.9 9 Nordeste 19 Nordeste 0 -- -- 78
2017-10-19 09:00:00 22.5 9 Nordeste 19 Este 0 -- -- 81
2017-10-19 08:00:00 22.3 8 Este 21 Este 0 -- -- 81
2017-10-19 07:00:00 22 9 Este 22 Este 0 -- -- 79
2017-10-19 06:00:00 21.7 8 Este 25 Norte 0 -- -- 80
2017-10-19 05:00:00 22.9 7 Nordeste 21 Sudeste 0 -- -- 71
2017-10-19 04:00:00 21.6 9 Sudeste 23 Norte 0 -- -- 78
2017-10-19 03:00:00 23 12 Nordeste 25 Nordeste 0 -- -- 67
2017-10-19 02:00:00 22.8 10 Este 30 Este 0 -- -- 68
2017-10-19 01:00:00 22.9 9 Este 25 Este 0 -- -- 62
2017-10-19 00:00:00 22.1 9 Este 19 Este 0 -- -- 65
2017-10-18 23:00:00 22.2 10 Nordeste 19 Nordeste 0 -- -- 68
2017-10-18 22:00:00 22.4 8 Nordeste 19 Nordeste 0 -- -- 68
2017-10-18 21:00:00 22.6 13 Nordeste 21 Norte 0 -- -- 65
2017-10-18 20:00:00 22.9 11 Nordeste 27 Norte 0 -- -- 66
2017-10-18 19:00:00 23.6 17 Norte 27 Norte 0 -- -- 66
2017-10-18 18:00:00 24.2 18 Norte 36 Norte 0 -- -- 63
2017-10-18 17:00:00 24.2 26 Norte 39 Norte 0 -- -- 65
2017-10-18 16:00:00 24.5 26 Norte 46 Nordeste 0 -- -- 64
2017-10-18 15:00:00 25 19 Norte 33 Norte 0 -- -- 63
2017-10-18 14:00:00 25.1 19 Nordeste 35 Nordeste 0 -- -- 59
2017-10-18 13:00:00 24.8 18 Nordeste -- -- -- -- -- 58
2017-10-18 12:00:00 -- -- -- -- -- -- -- -- --
2017-10-18 11:00:00 23.9 18 Nordeste 33 Nordeste 0 -- -- 62
2017-10-18 10:00:00 23.2 17 Nordeste 30 Nordeste 0 -- -- 64
2017-10-18 09:00:00 21.8 17 Nordeste 27 Nordeste 0 -- -- 71
2017-10-18 08:00:00 21.3 14 Nordeste 24 Nordeste 0 -- -- 73
2017-10-18 07:00:00 21.6 13 Nordeste 27 Este 0 -- -- 70
2017-10-18 06:00:00 22.2 10 Este 30 Sudeste 0 -- -- 68
2017-10-18 05:00:00 21.9 16 Nordeste 27 Nordeste 0 -- -- 74
2017-10-18 04:00:00 22 17 Nordeste 26 Nordeste 0 -- -- 77
2017-10-18 03:00:00 22.4 13 Nordeste 27 Nordeste 0 -- -- 78
2017-10-18 02:00:00 22.4 15 Nordeste 28 Nordeste 0 -- -- 78
2017-10-18 01:00:00 22.8 17 Nordeste 27 Nordeste 0 -- -- 76
2017-10-18 00:00:00 23 16 Nordeste 30 Nordeste 0 -- -- 79
2017-10-17 23:00:00 23.2 18 Nordeste 31 Nordeste 0 -- -- 80
2017-10-17 22:00:00 23.5 15 Nordeste 32 Nordeste 0 -- -- 81
2017-10-17 21:00:00 23.9 12 Nordeste 22 Nordeste 0 -- -- 74
2017-10-17 20:00:00 23.9 15 Nordeste 26 Nordeste 0 -- -- 74
2017-10-17 19:00:00 24.4 17 Norte 31 Norte 0 -- -- 73
2017-10-17 18:00:00 24.7 25 Norte 33 Norte 0 -- -- 77
2017-10-17 17:00:00 25.6 19 Norte 42 Norte 0 -- -- 72
2017-10-17 16:00:00 25.1 27 Norte 39 Norte 0 -- -- 75
2017-10-17 15:00:00 25.3 25 Norte 38 Norte 0 -- -- 76
2017-10-17 14:00:00 27.5 19 Nordeste 42 Norte 0 -- -- 59
2017-10-17 13:00:00 27.8 17 Norte 33 Norte 0 -- -- 59
2017-10-17 12:00:00 28 14 Norte 33 Nordeste 0 -- -- 54
2017-10-17 11:00:00 26.7 17 Nordeste 36 Nordeste 0 -- -- 62
2017-10-17 10:00:00 24.7 17 Nordeste 37 Nordeste 0 -- -- 71
2017-10-17 09:00:00 24 17 Norte 34 Nordeste 0 -- -- 74
2017-10-17 08:00:00 23.5 19 Nordeste 33 Nordeste 0 -- -- 79
2017-10-17 07:00:00 23.6 17 Nordeste 28 Nordeste 0 -- -- 80
2017-10-17 06:00:00 23.5 14 Nordeste 24 Este 0 -- -- 79
2017-10-17 05:00:00 23.3 14 Nordeste 24 Nordeste 0 -- -- 82
2017-10-17 04:00:00 23.4 13 Norte 28 Norte 0 -- -- 81
2017-10-17 03:00:00 23.7 16 Norte 27 Norte 0 -- -- 80
2017-10-17 02:00:00 24 5 Sur 8 Sur 0 -- -- 82
2017-10-17 01:00:00 24.9 5 Sur 15 Este 0 -- -- 75
2017-10-17 00:00:00 24.2 7 Este 19 Este 0 -- -- 67
2017-10-16 23:00:00 23.8 11 Nordeste 19 Nordeste 0 -- -- 78
2017-10-16 22:00:00 23.9 9 Nordeste 14 Nordeste 0 -- -- 82
2017-10-16 21:00:00 24.4 6 Norte 12 Norte 0 -- -- 83
2017-10-16 20:00:00 24.2 6 Nordeste 26 Norte 0 -- -- 84
2017-10-16 19:00:00 23.9 18 Norte 21 Norte 0 -- -- 88
2017-10-16 18:00:00 24.3 13 Norte 19 Norte 0 -- -- 89
2017-10-16 17:00:00 27 5 Noroeste 10 Noroeste 0 -- -- 73
2017-10-16 16:00:00 26.7 4 Sudoeste 10 Sur 0 -- -- 72
2017-10-16 15:00:00 26.6 5 Sudoeste 13 Sur 0 -- -- 73
2017-10-16 14:00:00 26.5 8 Sur 10 Oeste 0 -- -- 72
2017-10-16 13:00:00 25.6 4 Oeste 9 Sudoeste 0 -- -- 81
2017-10-16 12:00:00 25.9 8 Sur 14 Sur 0 -- -- 76
2017-10-16 11:00:00 25 9 Sur 15 Sudoeste 0 -- -- 74
2017-10-16 10:00:00 25 7 Sur 11 Sur 0 -- -- 62
2017-10-16 09:00:00 24.6 6 Nordeste 15 Sur 0 -- -- 47
2017-10-16 08:00:00 23.9 13 Sudeste 16 Sur 0 -- -- 69
2017-10-16 07:00:00 25 11 Este 19 Sur 0 -- -- 50
2017-10-16 06:00:00 24.9 6 Sudeste 21 Este 0 -- -- 56
2017-10-16 05:00:00 23.3 6 Sudeste 8 Sur 0 -- -- 74
2017-10-16 04:00:00 23.6 5 Sudeste 16 Nordeste 0 -- -- 69
2017-10-16 03:00:00 23.7 3 Nordeste 12 Sur 0 -- -- 72
2017-10-16 02:00:00 24.2 8 Este 19 Nordeste 0 -- -- 54
2017-10-16 01:00:00 24.4 4 Este 14 Este 0 -- -- 65
2017-10-16 00:00:00 24.8 4 Este 12 Este 0 -- -- 64
2017-10-15 23:00:00 24.9 3 Oeste 11 Sudeste 0 -- -- 71
2017-10-15 22:00:00 24.9 2 Noroeste 6 Norte 0 -- -- 73
2017-10-15 21:00:00 25.2 2 Nordeste 5 Norte 0 -- -- 72
2017-10-15 20:00:00 25.5 2 Sudeste 8 Noroeste 0 -- -- 69
2017-10-15 19:00:00 26.2 2 Este 6 Este 0 -- -- 65
2017-10-15 18:00:00 26.5 5 Sur 9 Sudeste 0 -- -- 63
2017-10-15 17:00:00 25.9 7 Sur 18 Sur 0 -- -- 69
2017-10-15 16:00:00 26.2 12 Sur 17 Sur 0 -- -- 65
2017-10-15 15:00:00 26.1 9 Sudeste 21 Sur 0 -- -- 66
2017-10-15 14:00:00 27.7 12 Norte 22 Norte 0 -- -- 63
2017-10-15 13:00:00 27.3 12 Norte 16 Norte 0 -- -- 64
2017-10-15 12:00:00 28.2 5 Norte 13 Este 0 -- -- 61
2017-10-15 11:00:00 28.3 6 Este 12 Este 0 -- -- 47
2017-10-15 10:00:00 26.3 3 Nordeste 10 Sur 0 -- -- 59
2017-10-15 09:00:00 25.2 8 Sur 17 Sudoeste 0 -- -- 73
2017-10-15 08:00:00 26.7 11 Sur 21 Oeste 0 -- -- 55
2017-10-15 07:00:00 30.7 15 Este 22 Este 0 -- -- 20
2017-10-15 06:00:00 27 4 Este 12 Este 0 -- -- 29
2017-10-15 05:00:00 25 0 Calma 8 Sudeste 0 -- -- 75
2017-10-15 04:00:00 24.9 4 Sudeste 13 Sudeste 0 -- -- 78
2017-10-15 03:00:00 27.3 5 Sudeste 15 Este 0 -- -- 42
2017-10-15 02:00:00 30.9 11 Este 17 Este 0 -- -- 20
2017-10-15 01:00:00 29.5 4 Este 10 Sudeste 0 -- -- 22
2017-10-15 00:00:00 27.7 6 Sur 18 Este 0 -- -- 50
2017-10-14 23:00:00 28.5 6 Nordeste 36 Sudoeste 0 -- -- 38
2017-10-14 22:00:00 27.7 5 Este 20 Este 0 -- -- 46
2017-10-14 21:00:00 26.6 8 Sudeste 37 Norte 0 -- -- 62
2017-10-14 20:00:00 26.9 14 Norte 33 Norte 0 -- -- 62
2017-10-14 19:00:00 26.1 5 Sudeste 17 Norte 0 -- -- 65
2017-10-14 18:00:00 26.6 9 Norte 13 Norte 0 -- -- 62
2017-10-14 17:00:00 27.3 5 Norte 7 Norte 0 -- -- 54
2017-10-14 16:00:00 28.1 2 Sudeste 5 Noroeste 0 -- -- 51
2017-10-14 15:00:00 29.6 4 Sur 22 Sur 0 -- -- 45
2017-10-14 14:00:00 27.7 13 Sur 56 Oeste 0 -- -- 55
2017-10-14 13:00:00 29.1 6 Sudeste 18 Este 0 -- -- 42
2017-10-14 12:00:00 27.9 8 Sur 21 Sudeste 0 -- -- 58
2017-10-14 11:00:00 27.4 17 Noroeste 30 Oeste 0 -- -- 62
2017-10-14 10:00:00 26.9 6 Norte 23 Sudoeste 0 -- -- 61
2017-10-14 09:00:00 27.5 5 Sudeste 22 Este 0 -- -- 54
2017-10-14 08:00:00 25.4 12 Sur 18 Sudoeste 0 -- -- 74
2017-10-14 07:00:00 23.9 8 Sur 12 Sudeste 0 -- -- 86
2017-10-14 06:00:00 24.3 5 Norte 12 Sur 0 -- -- 84
2017-10-14 05:00:00 24.5 8 Sur 15 Sur 0 -- -- 82
2017-10-14 04:00:00 25.7 6 Sudeste 22 Nordeste 0 -- -- 70
2017-10-14 03:00:00 25 14 Sur 23 Sur 0 -- -- 79
2017-10-14 02:00:00 26.3 3 Este 26 Este 0 -- -- 65
2017-10-14 01:00:00 26.9 11 Este 24 Norte 0 -- -- 56
2017-10-14 00:00:00 28.2 10 Nordeste 28 Este 0 -- -- 41
2017-10-13 23:00:00 26 6 Este 14 Oeste 0 -- -- 69
2017-10-13 22:00:00 25.1 13 Sur 19 Sur 0 -- -- 78
2017-10-13 21:00:00 25.1 8 Sudeste 14 Norte 0 -- -- 81
2017-10-13 20:00:00 24.3 3 Norte 10 Norte 0 -- -- 87
2017-10-13 19:00:00 24.7 3 Noroeste 8 Noroeste 0 -- -- 87
2017-10-13 18:00:00 24.9 4 Noroeste 9 Oeste 0 -- -- 85
2017-10-13 17:00:00 25.7 9 Noroeste 12 Noroeste 0 -- -- 85
2017-10-13 16:00:00 25.8 4 Oeste 9 Sur 0 -- -- 84
2017-10-13 15:00:00 26 8 Oeste 13 Noroeste 0 -- -- 83
2017-10-13 14:00:00 25.8 7 Noroeste 12 Norte 0 -- -- 83
2017-10-13 13:00:00 26 5 Oeste 9 Noroeste 0 -- -- 83
2017-10-13 12:00:00 25.6 6 Sudoeste 13 Sudoeste 0 -- -- 85
2017-10-13 11:00:00 25.3 2 Este 12 Sur 0 -- -- 84
2017-10-13 10:00:00 24.8 6 Sur 12 Sur 0 -- -- 84
2017-10-13 09:00:00 24.3 11 Sur 13 Sur 0 -- -- 81
2017-10-13 08:00:00 23.3 8 Este 14 Nordeste 0 -- -- 62
2017-10-13 07:00:00 22.6 6 Nordeste 18 Sur 0 -- -- 65
2017-10-13 06:00:00 24 6 Sur 16 Sudeste 0 -- -- 77
2017-10-13 05:00:00 23.9 5 Sur 10 Noroeste 0 -- -- 81
2017-10-13 04:00:00 23.6 9 Sur 17 Sur 0 -- -- 78
2017-10-13 03:00:00 23.2 11 Sur 14 Sur 0 -- -- 89
2017-10-13 02:00:00 23.2 9 Sudoeste 13 Sur 0 -- -- 89
2017-10-13 01:00:00 23.2 8 Sur 11 Sudeste 0 -- -- 88
2017-10-13 00:00:00 23.2 0 Calma 10 Sur 0 -- -- 87
2017-10-12 23:00:00 23.6 9 Nordeste 14 Nordeste 0 -- -- 86
2017-10-12 22:00:00 23.5 8 Nordeste 18 Nordeste 0 -- -- 85
2017-10-12 21:00:00 23.9 6 Nordeste 23 Nordeste 0 -- -- 86
2017-10-12 20:00:00 24 5 Nordeste 22 Norte 0 -- -- 86
2017-10-12 19:00:00 24.1 16 Norte 23 Norte 0 -- -- 87
2017-10-12 18:00:00 24.3 14 Norte 21 Norte 0 -- -- 86
2017-10-12 17:00:00 24.7 13 Noroeste 19 Norte 0 -- -- 84
2017-10-12 16:00:00 25.8 4 Sudoeste 11 Sur 0 -- -- 78
2017-10-12 15:00:00 26.3 10 Sur 17 Sur 0 -- -- 76
2017-10-12 14:00:00 26.2 11 Sur 17 Sur 0 -- -- 75
2017-10-12 13:00:00 26.4 13 Sur 20 Sur 0 -- -- 74
2017-10-12 12:00:00 25.9 5 Sudoeste 14 Sur 0 -- -- 71
2017-10-12 11:00:00 25.5 6 Sudoeste 9 Sur 0 -- -- 72
2017-10-12 10:00:00 24.1 5 Sudoeste 13 Sudeste 0 -- -- 74
2017-10-12 09:00:00 22.8 4 Este 16 Este 0 -- -- 70
2017-10-12 08:00:00 22 8 Este 17 Sudeste 0 -- -- 65
2017-10-12 07:00:00 22.6 10 Este 21 Sur 0 -- -- 68
2017-10-12 06:00:00 23.5 13 Sudoeste 20 Sudoeste 0 -- -- 62
2017-10-12 05:00:00 23.9 10 Sudeste 20 Sudeste 0 -- -- 55
2017-10-12 04:00:00 23.2 5 Sur 23 Nordeste 0 -- -- 66
2017-10-12 03:00:00 24.7 9 Este 20 Este 0 -- -- 45
2017-10-12 02:00:00 23.5 9 Sudeste 24 Sudeste 0 -- -- 56
2017-10-12 01:00:00 22.9 12 Este 22 Sudeste 0 -- -- 71
2017-10-12 00:00:00 22.8 10 Este 32 Este 0 -- -- 76
2017-10-11 23:00:00 22.8 12 Este 27 Este 0 -- -- 76
2017-10-11 22:00:00 22.9 17 Nordeste 28 Este 0 -- -- 75
2017-10-11 21:00:00 23.2 15 Nordeste 27 Este 0 -- -- 75
2017-10-11 20:00:00 23.6 13 Nordeste 25 Este 0 -- -- 73
2017-10-11 19:00:00 24.4 16 Nordeste 28 Este 0 -- -- 68
2017-10-11 18:00:00 26 12 Nordeste 23 Norte 0 -- -- 60
2017-10-11 17:00:00 26.8 9 Nordeste 37 Norte 0 -- -- 59
2017-10-11 16:00:00 25 23 Norte 36 Norte 0 -- -- 67
2017-10-11 15:00:00 25.7 16 Norte 25 Norte 0 -- -- 64
2017-10-11 14:00:00 26.4 6 Sur 14 Sudoeste 0 -- -- 61
2017-10-11 13:00:00 25.4 10 Sur 15 Sur 0 -- -- 62
2017-10-11 12:00:00 24.4 8 Oeste 13 Oeste 0 -- -- 64
2017-10-11 11:00:00 24.2 5 Norte 6 Norte 0 -- -- 62
2017-10-11 10:00:00 24.4 4 Sudeste 6 Sudeste 0 -- -- 55
2017-10-11 09:00:00 22 2 Este 10 Este 0 -- -- 55
2017-10-11 08:00:00 20.6 8 Este 10 Este 0 -- -- 53
2017-10-11 07:00:00 19.8 4 Nordeste 10 Este 0 -- -- 63
2017-10-11 06:00:00 20.2 3 Este 8 Este 0 -- -- 64
2017-10-11 05:00:00 20.3 3 Este 8 Nordeste 0 -- -- 64
2017-10-11 04:00:00 20.4 5 Nordeste 11 Este 0 -- -- 63
2017-10-11 03:00:00 21.1 3 Sudeste 10 Este 0 -- -- 64
2017-10-11 02:00:00 21 6 Este 12 Este 0 -- -- 72
2017-10-11 01:00:00 21.6 6 Este 12 Este 0 -- -- 74
2017-10-11 00:00:00 21.8 6 Este 10 Este 0 -- -- 73
2017-10-10 23:00:00 22.2 4 Este 5 Nordeste 0 -- -- 70
2017-10-10 22:00:00 22.6 3 Nordeste 6 Norte 0 -- -- 69
2017-10-10 21:00:00 22.9 4 Noroeste 9 Noroeste 0 -- -- 72
2017-10-10 20:00:00 23.2 7 Oeste 8 Oeste 0 -- -- 71
2017-10-10 19:00:00 24.8 4 Noroeste 7 Noroeste 0 -- -- 62
2017-10-10 18:00:00 24.2 5 Oeste 12 Oeste 0 -- -- 63
2017-10-10 17:00:00 24.2 7 Oeste 10 Oeste 0 -- -- 62
2017-10-10 16:00:00 24.9 8 Oeste 14 Sudoeste 0 -- -- 62
2017-10-10 15:00:00 24.9 10 Sudoeste 18 Sudoeste 0 -- -- 61
2017-10-10 14:00:00 24.4 15 Sudoeste 20 Sudoeste 0 -- -- 68
2017-10-10 13:00:00 24.6 14 Sudoeste 29 Sudoeste 0 -- -- 68
2017-10-10 12:00:00 24.3 17 Sudoeste 22 Sudoeste 0 -- -- 63
2017-10-10 11:00:00 25.9 10 Sur 14 Sur 0 -- -- 55
2017-10-10 10:00:00 25.5 5 Este 19 Este 0 -- -- 40
2017-10-10 09:00:00 22.5 13 Este 20 Sudeste 0 -- -- 46
2017-10-10 08:00:00 21.4 14 Este 21 Este 0 -- -- 48
2017-10-10 07:00:00 21.6 6 Este 18 Este 0 -- -- 50
2017-10-10 06:00:00 21 6 Este 16 Este 0 -- -- 51
2017-10-10 05:00:00 21.5 11 Este 17 Este 0 -- -- 52
2017-10-10 04:00:00 21.8 6 Este 12 Este 0 -- -- 49
2017-10-10 03:00:00 21.8 5 Este 10 Este 0 -- -- 50
2017-10-10 02:00:00 22.3 3 Este 13 Este 0 -- -- 51
2017-10-10 01:00:00 22.5 7 Este 13 Sudeste 0 -- -- 52
2017-10-10 00:00:00 22.8 2 Este 12 Nordeste 0 -- -- 50
2017-10-09 23:00:00 23.4 8 Este 13 Sudeste 0 -- -- 46
2017-10-09 22:00:00 23.1 6 Este 14 Este 0 -- -- 50
2017-10-09 21:00:00 23.1 8 Nordeste 15 Nordeste 0 -- -- 69
2017-10-09 20:00:00 23.4 12 Nordeste 21 Norte 0 -- -- 70
2017-10-09 19:00:00 24.4 13 Norte 25 Norte 0 -- -- 65
2017-10-09 18:00:00 24.4 18 Norte 23 Norte 0 -- -- 69
2017-10-09 17:00:00 24.6 14 Norte 21 Norte 0 -- -- 69
2017-10-09 16:00:00 24.3 18 Norte 21 Norte 0 -- -- 70
2017-10-09 15:00:00 24.6 14 Norte 17 Norte 0 -- -- 68
2017-10-09 14:00:00 25.1 14 Norte 23 Noroeste 0 -- -- 64
2017-10-09 13:00:00 24 17 Noroeste 23 Norte 0 -- -- 68
2017-10-09 12:00:00 24.5 16 Norte 19 Norte 0 -- -- 62
2017-10-09 11:00:00 24.3 9 Noroeste 10 Norte 0 -- -- 65
2017-10-09 10:00:00 24.4 6 Este 16 Sudeste 0 -- -- 58
2017-10-09 09:00:00 21.9 13 Este 18 Este 0 -- -- 55
2017-10-09 08:00:00 21.3 10 Este 18 Este 0 -- -- 57
2017-10-09 07:00:00 21.1 12 Este 17 Este 0 -- -- 57
2017-10-09 06:00:00 21.7 5 Este 14 Este 0 -- -- 59
2017-10-09 05:00:00 21.8 13 Este 18 Este 0 -- -- 57
2017-10-09 04:00:00 21.7 9 Sudeste 18 Sudeste 0 -- -- 60
2017-10-09 03:00:00 22 10 Sudeste 17 Sudeste 0 -- -- 60
2017-10-09 02:00:00 22.3 10 Sudeste 21 Sudeste 0 -- -- 60
2017-10-09 01:00:00 22.4 8 Este 14 Este 0 -- -- 59
2017-10-09 00:00:00 22.6 10 Este 16 Este 0 -- -- 57
2017-10-08 23:00:00 22.8 5 Nordeste 12 Nordeste 0 -- -- 64
2017-10-08 22:00:00 23.2 6 Nordeste 14 Nordeste 0 -- -- 68
2017-10-08 21:00:00 23.2 7 Nordeste 14 Norte 0 -- -- 72
2017-10-08 20:00:00 23.5 8 Nordeste 25 Norte 0 -- -- 68
2017-10-08 19:00:00 24 17 Norte 27 Norte 0 -- -- 71
2017-10-08 18:00:00 24.3 21 Norte 31 Norte 0 -- -- 69
2017-10-08 17:00:00 25.4 19 Norte 31 Norte 0 -- -- 63
2017-10-08 16:00:00 24.6 20 Norte 31 Norte 0 -- -- 72
2017-10-08 15:00:00 24.9 19 Norte 21 Norte 0 -- -- 68
2017-10-08 14:00:00 25.1 13 Norte 15 Norte 0 -- -- 67
2017-10-08 13:00:00 24.6 12 Norte 24 Norte 0 -- -- 69
2017-10-08 12:00:00 24.3 17 Norte 20 Noroeste 0 -- -- 72
2017-10-08 11:00:00 24.2 10 Norte 13 Norte 0 -- -- 69
2017-10-08 10:00:00 24.9 3 Este 17 Este 0 -- -- 59
2017-10-08 09:00:00 22 10 Este 16 Este 0 -- -- 64
2017-10-08 08:00:00 21.1 12 Este 17 Este 0 -- -- 62
2017-10-08 07:00:00 21.5 7 Este 14 Este 0 -- -- 62
2017-10-08 06:00:00 21.6 9 Este 16 Este 0 -- -- 66
2017-10-08 05:00:00 21.6 9 Este 13 Este 0 -- -- 65
2017-10-08 04:00:00 21.9 8 Este 12 Este 0 -- -- 65
2017-10-08 03:00:00 22.3 6 Este 15 Este 0 -- -- 63
2017-10-08 02:00:00 21.9 9 Sudeste 15 Sudeste 0 -- -- 67
2017-10-08 01:00:00 22.1 5 Este 10 Nordeste 0 -- -- 74
2017-10-08 00:00:00 22.5 5 Nordeste 10 Nordeste 0 -- -- 73
2017-10-07 23:00:00 22.8 5 Nordeste 9 Nordeste 0 -- -- 72
2017-10-07 22:00:00 23 5 Nordeste 15 Norte 0 -- -- 71
2017-10-07 21:00:00 23.2 10 Norte 14 Norte 0 -- -- 75
2017-10-07 20:00:00 23.5 8 Nordeste 17 Norte 0 -- -- 71
2017-10-07 19:00:00 24.5 12 Norte 21 Nordeste 0 -- -- 63
2017-10-07 18:00:00 24.6 14 Norte 24 Norte 0 -- -- 60
2017-10-07 17:00:00 24.5 20 Norte 28 Norte 0 -- -- 64
2017-10-07 16:00:00 24.1 21 Norte 25 Norte 0 -- -- 69
2017-10-07 15:00:00 25 16 Norte 24 Noroeste 0 -- -- 67
2017-10-07 14:00:00 24.7 13 Norte 17 Noroeste 0 -- -- 68
2017-10-07 13:00:00 25.1 9 Noroeste 14 Noroeste 0 -- -- 60
2017-10-07 12:00:00 25.3 4 Noroeste 8 Norte 0 -- -- 61
2017-10-07 11:00:00 24.7 8 Norte 13 Norte 0 -- -- 66
2017-10-07 10:00:00 23.8 8 Norte 11 Norte 0 -- -- 69
2017-10-07 09:00:00 23.3 4 Nordeste 9 Nordeste 0 -- -- 71
2017-10-07 08:00:00 22.1 5 Este 12 Este 0 -- -- 69
2017-10-07 07:00:00 22.4 6 Este 12 Norte 0 -- -- 75
2017-10-07 06:00:00 22.7 3 Oeste 6 Sudeste 0 -- -- 75
2017-10-07 05:00:00 22.8 4 Nordeste 7 Este 0 -- -- 75
2017-10-07 04:00:00 22.8 4 Nordeste 9 Sudeste 0 -- -- 73
2017-10-07 03:00:00 22.8 4 Este 8 Este 0 -- -- 72
2017-10-07 02:00:00 22.9 4 Nordeste 9 Nordeste 0 -- -- 71
2017-10-07 01:00:00 23.1 6 Nordeste 10 Nordeste 0 -- -- 70
2017-10-07 00:00:00 23.3 6 Nordeste 10 Nordeste 0 -- -- 68
2017-10-06 23:00:00 23.3 5 Nordeste 13 Nordeste 0 -- -- 69
2017-10-06 22:00:00 23.2 9 Nordeste 15 Nordeste 0 -- -- 73
2017-10-06 21:00:00 22.9 5 Nordeste 12 Nordeste 0 -- -- 74
2017-10-06 20:00:00 23.5 4 Noroeste 7 Noroeste 0 -- -- 76
2017-10-06 19:00:00 24.5 6 Noroeste 9 Norte 0 -- -- 73
2017-10-06 18:00:00 24.8 7 Oeste 21 Sudoeste 0 -- -- 70
2017-10-06 17:00:00 24.9 14 Sudoeste 17 Sudoeste 0 -- -- 71
2017-10-06 16:00:00 25.2 11 Sudoeste 15 Sudoeste 0 -- -- 67
2017-10-06 15:00:00 25.5 10 Sudoeste 15 Sudoeste 0 -- -- 65
2017-10-06 14:00:00 25.4 8 Oeste 11 Sudoeste 0 -- -- 59
2017-10-06 13:00:00 25.3 5 Noroeste 12 Norte 0 -- -- 57
2017-10-06 12:00:00 25.2 8 Noroeste 15 Norte 0 -- -- 55
2017-10-06 11:00:00 25 6 Norte 18 Este 0 -- -- 55
2017-10-06 10:00:00 24.2 9 Este 19 Este 0 -- -- 59
2017-10-06 09:00:00 22.7 8 Sudeste 19 Este 0 -- -- 62
2017-10-06 08:00:00 21.6 11 Este 20 Este 0 -- -- 66
2017-10-06 07:00:00 21.6 6 Este 15 Nordeste 0 -- -- 73
2017-10-06 06:00:00 21.5 7 Este 11 Este 0 -- -- 72
2017-10-06 05:00:00 21.8 7 Este 10 Este 0 -- -- 76
2017-10-06 04:00:00 21.8 4 Nordeste 8 Este 0 -- -- 77
2017-10-06 03:00:00 22.6 4 Oeste 11 Sudoeste 0 -- -- 76
2017-10-06 02:00:00 22.7 9 Sudoeste 11 Sudoeste 0 -- -- 76
2017-10-06 01:00:00 22.8 6 Sudoeste 9 Sudoeste 0 -- -- 78
2017-10-06 00:00:00 22.8 6 Oeste 14 Oeste 0 -- -- 80
2017-10-05 23:00:00 22.7 10 Sudoeste 14 Sudoeste 0 -- -- 81
2017-10-05 22:00:00 22.9 12 Sudoeste 15 Sudoeste 0 -- -- 82
2017-10-05 21:00:00 23.1 6 Sudoeste 9 Sudoeste 0 -- -- 79
2017-10-05 20:00:00 23.6 6 Sudoeste 10 Sudoeste 0 -- -- 76
2017-10-05 19:00:00 25.1 7 Sudoeste 13 Sudoeste 0 -- -- 71
2017-10-05 18:00:00 25.7 10 Sudoeste 15 Sudoeste 0 -- -- 68
2017-10-05 17:00:00 25.1 10 Sudoeste 12 Sudoeste 0 -- -- 69
2017-10-05 16:00:00 25.4 6 Oeste 8 Oeste 0 -- -- 68
2017-10-05 15:00:00 24.7 6 Sudoeste 13 Sudoeste 0 -- -- 71
2017-10-05 14:00:00 24.8 8 Sudoeste 12 Sudoeste 0 -- -- 71
2017-10-05 13:00:00 24.6 8 Sudoeste 13 Sudoeste 0 -- -- 74
2017-10-05 12:00:00 24.8 3 Oeste 8 Sudoeste 0 -- -- 67
2017-10-05 11:00:00 25 4 Sudeste 7 Sudoeste 0 -- -- 65
2017-10-05 10:00:00 23.5 2 Sur 6 Sudeste 0 -- -- 69
2017-10-05 09:00:00 21.7 3 Este 16 Este 0 -- -- 73
2017-10-05 08:00:00 20.6 12 Este 19 Este 0 -- -- 74
2017-10-05 07:00:00 21 8 Este 16 Este 0 -- -- 74
2017-10-05 06:00:00 20.8 12 Este 15 Este 0 -- -- 74
2017-10-05 05:00:00 21.4 7 Este 16 Este 0 -- -- 74
2017-10-05 04:00:00 21.5 9 Este 14 Este 0 -- -- 73
2017-10-05 03:00:00 21.7 4 Este 20 Sudeste 0 -- -- 72
2017-10-05 02:00:00 21.7 11 Este 14 Este 0 -- -- 70
2017-10-05 01:00:00 22.3 8 Este 13 Este 0 -- -- 70
2017-10-05 00:00:00 22.4 8 Este 13 Este 0 -- -- 69
2017-10-04 23:00:00 22.8 6 Sudeste 12 Nordeste 0 -- -- 70
2017-10-04 22:00:00 23.1 5 Nordeste 14 Nordeste 0 -- -- 69
2017-10-04 21:00:00 23.3 9 Nordeste 16 Nordeste 0 -- -- 70
2017-10-04 20:00:00 23.6 11 Norte 22 Norte 0 -- -- 72
2017-10-04 19:00:00 24.3 17 Norte 27 Norte 0 -- -- 74
2017-10-04 18:00:00 24.8 19 Norte 28 Norte 0 -- -- 67
2017-10-04 17:00:00 24.9 23 Norte 35 Norte 0 -- -- 68
2017-10-04 16:00:00 24.8 23 Norte 27 Norte 0 -- -- 68
2017-10-04 15:00:00 25.1 14 Norte 18 Norte 0 -- -- 74
2017-10-04 14:00:00 24.8 13 Norte 18 Noroeste 0 -- -- 68
2017-10-04 13:00:00 25 11 Noroeste 18 Norte 0 -- -- 67
2017-10-04 12:00:00 24.8 12 Norte 17 Norte 0 -- -- 66
2017-10-04 11:00:00 24.7 10 Norte 18 Norte 0 -- -- 65
2017-10-04 10:00:00 24.1 7 Nordeste 14 Nordeste 0 -- -- 66
2017-10-04 09:00:00 23 11 Este 16 Este 0 -- -- 62
2017-10-04 08:00:00 22.7 10 Este 17 Este 0 -- -- 59
2017-10-04 07:00:00 22.8 10 Sudeste 19 Este 0 -- -- 63
2017-10-04 06:00:00 22.9 8 Sudeste 18 Sudeste 0 -- -- 68
2017-10-04 05:00:00 22.5 10 Este 17 Este 0 -- -- 69
2017-10-04 04:00:00 22.6 10 Este 17 Nordeste 0 -- -- 70
2017-10-04 03:00:00 22.9 10 Nordeste 21 Nordeste 0 -- -- 72
2017-10-04 02:00:00 23.1 9 Nordeste 19 Norte 0 -- -- 73
2017-10-04 01:00:00 22.8 8 Este 21 Nordeste 0 -- -- 72
2017-10-04 00:00:00 22.9 9 Este 18 Este 0 -- -- 73
2017-10-03 23:00:00 22.9 9 Nordeste 20 Norte 0 -- -- 73
2017-10-03 22:00:00 22.7 11 Nordeste 22 Nordeste 0 -- -- 74
2017-10-03 21:00:00 22.7 10 Norte 27 Norte 0 -- -- 74
2017-10-03 20:00:00 22.9 16 Norte 36 Norte 0 -- -- 73
2017-10-03 19:00:00 23.8 20 Norte 40 Norte 0 -- -- 71
2017-10-03 18:00:00 24.2 24 Norte 37 Norte 0 -- -- 70
2017-10-03 17:00:00 24.3 26 Norte 39 Norte 0 -- -- 71
2017-10-03 16:00:00 23.9 31 Norte 41 Norte 0 -- -- 73
2017-10-03 15:00:00 24.9 26 Norte 45 Norte 0 -- -- 68
2017-10-03 14:00:00 24.6 25 Norte 39 Norte 0 -- -- 71
2017-10-03 13:00:00 24.8 23 Norte 38 Norte 0 -- -- 71
2017-10-03 12:00:00 23.9 27 Norte 35 Norte 0 -- -- 75
2017-10-03 11:00:00 24 15 Norte 23 Nordeste 0 -- -- 74
2017-10-03 10:00:00 23.9 13 Nordeste 24 Este 0 -- -- 68
2017-10-03 09:00:00 22.6 11 Nordeste 20 Este 0 -- -- 74
2017-10-03 08:00:00 22.2 12 Nordeste 21 Norte 0 -- -- 73
2017-10-03 07:00:00 22.2 8 Nordeste 18 Nordeste 0 -- -- 75
2017-10-03 06:00:00 21.9 8 Nordeste 18 Nordeste 0 -- -- 73
2017-10-03 05:00:00 22.5 10 Nordeste 23 Nordeste 0 -- -- 71
2017-10-03 04:00:00 23 10 Nordeste 20 Este 0 -- -- 71
2017-10-03 03:00:00 23.1 14 Nordeste 23 Nordeste 0 -- -- 71
2017-10-03 02:00:00 23.2 13 Nordeste 23 Este 0 -- -- 71
2017-10-03 01:00:00 23 12 Nordeste 23 Nordeste 0 -- -- 69
2017-10-03 00:00:00 23 12 Nordeste 27 Nordeste 0 -- -- 72
2017-10-02 23:00:00 22.9 13 Nordeste 26 Nordeste 0 -- -- 72
2017-10-02 22:00:00 23 12 Nordeste 24 Norte 0 -- -- 71
2017-10-02 21:00:00 22.8 12 Nordeste 27 Norte 0 -- -- 73
2017-10-02 20:00:00 22.9 21 Norte 39 Nordeste 0 -- -- 74
2017-10-02 19:00:00 23.8 23 Norte 46 Norte 0 -- -- 72
2017-10-02 18:00:00 24.4 23 Norte 37 Nordeste 0 -- -- 68
2017-10-02 17:00:00 24.7 24 Norte 39 Norte 0 -- -- 65
2017-10-02 16:00:00 25 24 Norte 36 Norte 0 -- -- 62
2017-10-02 15:00:00 25.1 25 Norte 38 Norte 0 -- -- 60
2017-10-02 14:00:00 25.3 22 Norte 33 Nordeste 0 -- -- 56
2017-10-02 13:00:00 24 14 Nordeste 30 Nordeste 0 -- -- 67
2017-10-02 12:00:00 24.1 18 Norte 28 Norte 0 -- -- 64
2017-10-02 11:00:00 23.9 16 Nordeste 32 Este 0 -- -- 60
2017-10-02 10:00:00 23 15 Nordeste 27 Norte 0 -- -- 66
2017-10-02 09:00:00 22.9 12 Nordeste 30 Nordeste 0 -- -- 67
2017-10-02 08:00:00 22.3 14 Nordeste 32 Norte 0 -- -- 73
2017-10-02 07:00:00 22.6 16 Nordeste 28 Nordeste 0 -- -- 73
2017-10-02 06:00:00 23 14 Este 31 Nordeste 0 -- -- 66
2017-10-02 05:00:00 22.7 17 Nordeste 29 Nordeste 0 -- -- 71
2017-10-02 04:00:00 22.6 16 Nordeste 30 Nordeste 0 -- -- 71
2017-10-02 03:00:00 22.5 17 Nordeste 33 Nordeste 0 -- -- 75
2017-10-02 02:00:00 22.4 18 Nordeste 39 Norte 0 -- -- 76
2017-10-02 01:00:00 22.4 23 Norte 41 Norte 0 -- -- 76
2017-10-02 00:00:00 22.5 28 Norte 42 Norte 0 -- -- 76
2017-10-01 23:00:00 22.5 21 Norte 35 Norte 0 -- -- 76
2017-10-01 22:00:00 22.7 21 Norte 36 Norte 0 -- -- 75
2017-10-01 21:00:00 22.9 19 Nordeste 39 Nordeste 0 -- -- 75
2017-10-01 20:00:00 23.2 19 Nordeste 43 Nordeste 0 -- -- 74
2017-10-01 19:00:00 23.7 21 Nordeste 40 Nordeste 0 -- -- 72
2017-10-01 18:00:00 24.2 22 Nordeste 40 Norte 0 -- -- 70
2017-10-01 17:00:00 25.1 23 Nordeste 46 Norte 0 -- -- 67
2017-10-01 16:00:00 24.5 30 Norte 44 Norte 0 -- -- 71
2017-10-01 15:00:00 24.6 32 Norte 47 Norte 0 -- -- 70
2017-10-01 14:00:00 25.4 23 Nordeste 45 Nordeste 0 -- -- 66
2017-10-01 13:00:00 25.1 23 Nordeste 38 Este 0 -- -- 64
2017-10-01 12:00:00 24 22 Nordeste 36 Nordeste 0 -- -- 71
2017-10-01 11:00:00 23.5 18 Nordeste 36 Nordeste 0 -- -- 76
2017-10-01 10:00:00 23.2 20 Nordeste 34 Nordeste 0 -- -- 76
2017-10-01 09:00:00 22.8 23 Nordeste 37 Nordeste 0 -- -- 80
2017-10-01 08:00:00 22.7 25 Nordeste 39 Nordeste 0 -- -- 80
2017-10-01 07:00:00 22.7 23 Nordeste 38 Nordeste 0 -- -- 80
2017-10-01 06:00:00 22.8 18 Nordeste 32 Nordeste 0 -- -- 77
2017-10-01 05:00:00 22.8 21 Nordeste 33 Nordeste 0 -- -- 76
2017-10-01 04:00:00 22.9 21 Nordeste 32 Nordeste 0 -- -- 76
2017-10-01 03:00:00 23.1 18 Nordeste 34 Nordeste 0 -- -- 74
2017-10-01 02:00:00 23 19 Nordeste 39 Nordeste 0 -- -- 76
2017-10-01 01:00:00 23.1 18 Nordeste 31 Nordeste 0 -- -- 72
2017-10-01 00:00:00 23 16 Nordeste 35 Nordeste 0 -- -- 73
2017-09-30 23:00:00 23.1 19 Nordeste 35 Nordeste 0 -- -- 73
2017-09-30 22:00:00 23 20 Nordeste 38 Nordeste 0 -- -- 74
2017-09-30 21:00:00 23.1 22 Nordeste 38 Nordeste 0 -- -- 75
2017-09-30 20:00:00 23.3 17 Nordeste 31 Nordeste 0 -- -- 75
2017-09-30 19:00:00 23.7 19 Nordeste 35 Nordeste 0 -- -- 70
2017-09-30 18:00:00 24.3 18 Nordeste 34 Nordeste 0 -- -- 70
2017-09-30 17:00:00 24 21 Nordeste 34 Nordeste 0 -- -- 70
2017-09-30 16:00:00 24.5 17 Nordeste 37 Nordeste 0 -- -- 68
2017-09-30 15:00:00 25.2 17 Nordeste 36 Nordeste 0 -- -- 65
2017-09-30 14:00:00 24.5 21 Nordeste 36 Norte 0 -- -- 67
2017-09-30 13:00:00 25.3 17 Nordeste 36 Norte 0 -- -- 64
2017-09-30 12:00:00 24.3 15 Nordeste 28 Norte 0 -- -- 66
2017-09-30 11:00:00 23.5 16 Nordeste 31 Nordeste 0 -- -- 70
2017-09-30 10:00:00 23.1 18 Nordeste 32 Nordeste 0 -- -- 72
2017-09-30 09:00:00 22.6 15 Nordeste 30 Nordeste 0 -- -- 76
2017-09-30 08:00:00 22.3 15 Nordeste 27 Nordeste 0 -- -- 76
2017-09-30 07:00:00 22.2 16 Nordeste 27 Nordeste 0 -- -- 76
2017-09-30 06:00:00 22.3 17 Nordeste 31 Nordeste 0 -- -- 77
2017-09-30 05:00:00 22.1 14 Nordeste 31 Nordeste 0 -- -- 76
2017-09-30 04:00:00 22.4 17 Nordeste 30 Nordeste 0 -- -- 75
2017-09-30 03:00:00 22.2 14 Nordeste 28 Nordeste 0 -- -- 77
2017-09-30 02:00:00 22.2 14 Nordeste 27 Nordeste 0 -- -- 77
2017-09-30 01:00:00 22.3 16 Nordeste 29 Nordeste 0 -- -- 78
2017-09-30 00:00:00 22.5 18 Nordeste 35 Nordeste 0 -- -- 75
2017-09-29 23:00:00 22.8 17 Norte 26 Nordeste 0 -- -- 74
2017-09-29 22:00:00 22.8 17 Nordeste 29 Norte 0 -- -- 75
2017-09-29 21:00:00 22.9 15 Nordeste 27 Nordeste 0 -- -- 74
2017-09-29 20:00:00 23.1 19 Nordeste 41 Nordeste 0 -- -- 72
2017-09-29 19:00:00 23.9 19 Nordeste 34 Nordeste 0 -- -- 71
2017-09-29 18:00:00 24.4 21 Nordeste 36 Nordeste 0 -- -- 66
2017-09-29 17:00:00 25.2 20 Nordeste 38 Nordeste 0 -- -- 65
2017-09-29 16:00:00 25 26 Norte 39 Norte 0 -- -- 61
2017-09-29 15:00:00 24.6 26 Norte 42 Norte 0 -- -- 65
2017-09-29 14:00:00 24.4 31 Norte 44 Norte 0 -- -- 63
2017-09-29 13:00:00 24.2 29 Norte 42 Norte 0 -- -- 65
2017-09-29 12:00:00 24.3 20 Nordeste 35 Nordeste 0 -- -- 63
2017-09-29 11:00:00 24.2 15 Nordeste 33 Este 0 -- -- 66
2017-09-29 10:00:00 23.4 18 Nordeste 31 Nordeste 0 -- -- 67
2017-09-29 09:00:00 22.4 18 Nordeste 30 Nordeste 0 -- -- 70
2017-09-29 08:00:00 21.7 12 Nordeste 27 Norte 0 -- -- 71
2017-09-29 07:00:00 21.9 15 Nordeste 28 Nordeste 0 -- -- 73
2017-09-29 06:00:00 22 18 Nordeste 33 Norte 0 -- -- 73
2017-09-29 05:00:00 22.1 21 Nordeste 35 Nordeste 0 -- -- 74
2017-09-29 04:00:00 22 21 Nordeste 33 Nordeste 0 -- -- 75
2017-09-29 03:00:00 22.2 18 Nordeste 34 Nordeste 0 -- -- 75
2017-09-29 02:00:00 22.4 21 Nordeste 41 Nordeste 0 -- -- 75
2017-09-29 01:00:00 22.3 25 Nordeste 37 Nordeste 0 -- -- 75
2017-09-29 00:00:00 22.5 18 Nordeste 28 Nordeste 0 -- -- 73
2017-09-28 23:00:00 22.6 6 Nordeste 24 Nordeste 0 -- -- 72
2017-09-28 22:00:00 22.6 11 Nordeste 25 Nordeste 0 -- -- 74
2017-09-28 21:00:00 22.7 13 Nordeste 27 Nordeste 0 -- -- 77
2017-09-28 20:00:00 23.5 13 Nordeste 27 Nordeste 0 -- -- 72
2017-09-28 19:00:00 25.2 8 Nordeste 32 Nordeste 0 -- -- 66
2017-09-28 18:00:00 25.5 19 Norte 37 Norte 0 -- -- 65
2017-09-28 17:00:00 25.5 23 Norte 44 Norte 0 -- -- 64
2017-09-28 16:00:00 25.6 25 Norte 44 Norte 0 -- -- 65
2017-09-28 15:00:00 25.1 30 Norte 50 Norte 0 -- -- 66
2017-09-28 14:00:00 24.9 31 Norte 45 Norte 0 -- -- 67
2017-09-28 13:00:00 25.6 27 Norte 47 Norte 0 -- -- 65
2017-09-28 12:00:00 25 26 Norte 40 Norte 0 -- -- 66
2017-09-28 11:00:00 24.4 24 Norte 37 Norte 0 -- -- 69
2017-09-28 10:00:00 24.1 19 Nordeste 33 Nordeste 0 -- -- 69
2017-09-28 09:00:00 23.7 18 Nordeste 31 Nordeste 0 -- -- 65
2017-09-28 08:00:00 22.8 17 Nordeste 27 Nordeste 0 -- -- 65
2017-09-28 07:00:00 23.7 19 Nordeste 28 Nordeste 0 -- -- 59
2017-09-28 06:00:00 23.9 17 Nordeste 37 Norte 0 -- -- 58
2017-09-28 05:00:00 24 19 Nordeste 29 Nordeste 0 -- -- 57
2017-09-28 04:00:00 23.9 14 Nordeste 26 Nordeste 0 -- -- 58
2017-09-28 03:00:00 23.7 4 Sur 16 Nordeste 0 -- -- 62
2017-09-28 02:00:00 23.9 4 Sudeste 28 Nordeste 0 -- -- 57
2017-09-28 01:00:00 24 17 Nordeste 31 Nordeste 0 -- -- 54
2017-09-28 00:00:00 23.8 11 Nordeste 28 Nordeste 0 -- -- 59
2017-09-27 23:00:00 23.5 14 Nordeste 29 Este 0 -- -- 75
2017-09-27 22:00:00 24 11 Nordeste 25 Este 0 -- -- 75
2017-09-27 21:00:00 24.8 9 Este 27 Nordeste 0 -- -- 70
2017-09-27 20:00:00 26 12 Nordeste 40 Nordeste 0 -- -- 64
2017-09-27 19:00:00 28.1 20 Nordeste 47 Norte 0 -- -- 53
2017-09-27 18:00:00 28.4 27 Nordeste 43 Norte 0 -- -- 52
2017-09-27 17:00:00 29.4 20 Nordeste 42 Norte 0 -- -- 48
2017-09-27 16:00:00 27.5 27 Norte 45 Norte 0 -- -- 64
2017-09-27 15:00:00 27.9 25 Norte 40 Nordeste 0 -- -- 52
2017-09-27 14:00:00 26.6 27 Norte 42 Norte 0 -- -- 64
2017-09-27 13:00:00 26.4 29 Norte 41 Norte 0 -- -- 64
2017-09-27 12:00:00 27.7 17 Norte 32 Norte 0 -- -- 51
2017-09-27 11:00:00 26.4 20 Norte 32 Nordeste 0 -- -- 55
2017-09-27 10:00:00 26.4 12 Nordeste 22 Nordeste 0 -- -- 53
2017-09-27 09:00:00 24.6 12 Nordeste 20 Nordeste 0 -- -- 64
2017-09-27 08:00:00 23.2 12 Nordeste 21 Nordeste 0 -- -- 69
2017-09-27 07:00:00 23.5 11 Nordeste 23 Nordeste 0 -- -- 67
2017-09-27 06:00:00 23.7 14 Nordeste 24 Nordeste 0 -- -- 66
2017-09-27 05:00:00 23.6 11 Nordeste 21 Nordeste 0 -- -- 66
2017-09-27 04:00:00 23.1 9 Nordeste 16 Nordeste 0 -- -- 74
2017-09-27 03:00:00 23.7 7 Nordeste 16 Nordeste 0 -- -- 66
2017-09-27 02:00:00 23.5 4 Sudeste 10 Sudeste 0 -- -- 69
2017-09-27 01:00:00 23.2 0 Calma 11 Este 0 -- -- 72
2017-09-27 00:00:00 23.8 5 Este 12 Sur 0 -- -- 76
2017-09-26 23:00:00 23.6 0 Calma 4 Sudeste 0 -- -- 86
2017-09-26 22:00:00 23.8 4 Sur 6 Sur 0 -- -- 86
2017-09-26 21:00:00 23.9 4 Sudeste 10 Sudeste 0 -- -- 87
2017-09-26 20:00:00 24.6 7 Sur 10 Sur 0 -- -- 83
2017-09-26 19:00:00 26.8 4 Sudoeste 9 Sudoeste 0 -- -- 75
2017-09-26 18:00:00 26.6 7 Sudoeste 15 Sudoeste 0 -- -- 75
2017-09-26 17:00:00 26 12 Sudoeste 19 Sudoeste 0 -- -- 78
2017-09-26 16:00:00 25.3 14 Sudoeste 22 Sudoeste 0 -- -- 80
2017-09-26 15:00:00 25.1 17 Sudoeste 22 Sudoeste 0 -- -- 80
2017-09-26 14:00:00 25.9 12 Sudoeste 18 Sudoeste 0 -- -- 77
2017-09-26 13:00:00 26.3 8 Sur 14 Sudoeste 0 -- -- 73
2017-09-26 12:00:00 25.5 8 Sur 19 Sudoeste 0 -- -- 78
2017-09-26 11:00:00 25.7 11 Sur 17 Sur 0 -- -- 75
2017-09-26 10:00:00 25.3 5 Sudoeste 15 Sur 0 -- -- 76
2017-09-26 09:00:00 24.5 3 Norte 12 Norte 0 -- -- 76
2017-09-26 08:00:00 22.6 10 Este 16 Este 0 -- -- 81
2017-09-26 07:00:00 22.7 2 Norte 8 Sur 0 -- -- 89
2017-09-26 06:00:00 22.9 2 Sur 12 Norte 0 -- -- 86
2017-09-26 05:00:00 23.5 5 Nordeste 19 Nordeste 0 -- -- 83
2017-09-26 04:00:00 23.4 8 Norte 23 Norte 0 -- -- 83
2017-09-26 03:00:00 23.7 10 Nordeste 27 Norte 0 -- -- 80
2017-09-26 02:00:00 23.5 5 Nordeste 13 Norte 0 -- -- 83
2017-09-26 01:00:00 24.6 3 Este 8 Este 0 -- -- 72
2017-09-26 00:00:00 23.6 0 Calma 6 Sudeste 0 -- -- 84
2017-09-25 23:00:00 23.8 6 Norte 10 Norte 0 -- -- 84
2017-09-25 22:00:00 24.3 6 Norte 9 Norte 0 -- -- 80
2017-09-25 21:00:00 24.3 5 Norte 9 Norte 0 -- -- 80
2017-09-25 20:00:00 24.9 6 Norte 15 Norte 0 -- -- 77
2017-09-25 19:00:00 25.3 8 Norte 10 Norte 0 -- -- 78
2017-09-25 18:00:00 25.7 4 Sudeste 12 Sudoeste 0 -- -- 76
2017-09-25 17:00:00 27.1 9 Sur 15 Sur 0 -- -- 66
2017-09-25 16:00:00 27.5 6 Sur 14 Sudoeste 0 -- -- 63
2017-09-25 15:00:00 26.7 6 Sur 16 Sudeste 0 -- -- 69
2017-09-25 14:00:00 26.6 6 Sur 9 Sur 0 -- -- 74
2017-09-25 13:00:00 26.7 5 Sur 9 Sur 0 -- -- 75
2017-09-25 12:00:00 26.4 6 Sur 9 Sur 0 -- -- 77
2017-09-25 11:00:00 25.3 6 Sudeste 16 Norte 0 -- -- 78
2017-09-25 10:00:00 23.3 8 Norte 15 Norte 0 -- -- 89
2017-09-25 09:00:00 23.4 4 Sur 15 Sudeste 0 -- -- 90
2017-09-25 08:00:00 22.4 4 Sur 8 Sudeste 0 -- -- 93
2017-09-25 07:00:00 22.6 4 Sudoeste 12 Sur 0 -- -- 92
2017-09-25 06:00:00 22.6 9 Sur 13 Sur 0 -- -- 92
2017-09-25 05:00:00 22.7 8 Sur 26 Sur 0 -- -- 90
2017-09-25 04:00:00 23 18 Sudoeste 26 Sudoeste 0 -- -- 88
2017-09-25 03:00:00 23.7 9 Sur 14 Sudeste 0 -- -- 81
2017-09-25 02:00:00 24.2 14 Sudeste 32 Sur 0 -- -- 77
2017-09-25 01:00:00 23.5 9 Sudeste 41 Nordeste 0 -- -- 81
2017-09-25 00:00:00 23.3 22 Nordeste 40 Nordeste 0 -- -- 83
2017-09-24 23:00:00 23.5 15 Nordeste 34 Este 0 -- -- 82
2017-09-24 22:00:00 24.1 9 Nordeste 17 Nordeste 0 -- -- 78
2017-09-24 21:00:00 23.9 4 Noroeste 12 Noroeste 0 -- -- 84
2017-09-24 20:00:00 24.5 4 Sudoeste 12 Norte 0 -- -- 80
2017-09-24 19:00:00 25.7 4 Sudeste 10 Sudeste 0 -- -- 74
2017-09-24 18:00:00 26.3 5 Sur 15 Norte 0 -- -- 73
2017-09-24 17:00:00 26.7 7 Sudoeste 19 Sudeste 0 -- -- 71
2017-09-24 16:00:00 27.1 8 Nordeste 29 Norte 0 -- -- 69
2017-09-24 15:00:00 25.4 19 Norte 28 Norte 0 -- -- 76
2017-09-24 14:00:00 25.8 5 Noroeste 14 Sur 0 -- -- 67
2017-09-24 13:00:00 25.2 9 Sur 18 Sur 0 -- -- 71
2017-09-24 12:00:00 25.4 6 Sur 14 Sur 0 -- -- 72
2017-09-24 11:00:00 25.2 10 Sudoeste 21 Este 0 -- -- 69
2017-09-24 10:00:00 23.9 14 Este 28 Este 0 -- -- 72
2017-09-24 09:00:00 22.6 17 Sudeste 27 Sudeste 0 -- -- 74
2017-09-24 08:00:00 21.9 13 Sudeste 28 Sudeste 0 -- -- 75
2017-09-24 07:00:00 21.9 14 Este 33 Este 0 -- -- 78
2017-09-24 06:00:00 21.8 10 Este 31 Sudeste 0 -- -- 80
2017-09-24 05:00:00 21.7 8 Este 30 Este 0 -- -- 79
2017-09-24 04:00:00 21.8 12 Este 27 Nordeste 0 -- -- 82
2017-09-24 03:00:00 22.2 5 Este 17 Nordeste 0 -- -- 78
2017-09-24 02:00:00 22.5 8 Este 24 Este 0 -- -- 77
2017-09-24 01:00:00 22.7 13 Este 40 Nordeste 0 -- -- 77
2017-09-24 00:00:00 22.5 22 Nordeste 41 Nordeste 0 -- -- 80
2017-09-23 23:00:00 22.5 27 Nordeste 42 Nordeste 0 -- -- 78
2017-09-23 22:00:00 22.4 23 Nordeste 46 Nordeste 0 -- -- 79
2017-09-23 21:00:00 22.3 18 Nordeste 55 Nordeste 0 -- -- 81
2017-09-23 20:00:00 22.5 29 Nordeste 49 Nordeste 0 -- -- 79
2017-09-23 19:00:00 22.7 24 Nordeste 46 Nordeste 0 -- -- 78
2017-09-23 18:00:00 22.4 25 Nordeste 39 Nordeste 0 -- -- 80
2017-09-23 17:00:00 22.7 20 Nordeste 39 Nordeste 0 -- -- 79
2017-09-23 16:00:00 23 21 Nordeste 40 Nordeste 0 -- -- 75
2017-09-23 15:00:00 23 23 Nordeste 45 Nordeste 0 -- -- 75
2017-09-23 14:00:00 22.8 22 Nordeste 40 Nordeste 0 -- -- 75
2017-09-23 13:00:00 23.1 22 Nordeste 39 Norte 0 -- -- 73
2017-09-23 12:00:00 22.3 20 Nordeste 36 Nordeste 0 -- -- 78
2017-09-23 11:00:00 22.6 18 Nordeste 36 Nordeste 0 -- -- 74
2017-09-23 10:00:00 22.3 22 Nordeste 43 Nordeste 0 -- -- 75
2017-09-23 09:00:00 22.1 20 Nordeste 38 Nordeste 0 -- -- 74
2017-09-23 08:00:00 21.8 20 Nordeste 33 Nordeste 0 -- -- 76
2017-09-23 07:00:00 21.7 13 Nordeste 30 Nordeste 0 -- -- 76
2017-09-23 06:00:00 21.7 16 Nordeste 33 Nordeste 0 -- -- 75
2017-09-23 05:00:00 21.7 17 Nordeste 33 Norte 0 -- -- 72
2017-09-23 04:00:00 21.7 17 Nordeste 42 Nordeste 0 -- -- 72
2017-09-23 03:00:00 21.9 23 Nordeste 39 Nordeste 0 -- -- 72
2017-09-23 02:00:00 22 21 Nordeste 44 Nordeste 0 -- -- 72
2017-09-23 01:00:00 22.2 24 Nordeste 43 Nordeste 0 -- -- 69
2017-09-23 00:00:00 22.3 17 Nordeste 37 Nordeste 0 -- -- 70
2017-09-22 23:00:00 22.4 28 Nordeste 42 Nordeste 0 -- -- 73
2017-09-22 22:00:00 22.5 22 Nordeste 40 Nordeste 0 -- -- 72
2017-09-22 21:00:00 22.7 21 Nordeste 37 Nordeste 0 -- -- 72
2017-09-22 20:00:00 23 23 Nordeste 35 Nordeste 0 -- -- 73
2017-09-22 19:00:00 23.9 19 Nordeste 39 Nordeste 0 -- -- 68
2017-09-22 18:00:00 24.3 19 Nordeste 49 Nordeste 0 -- -- 67
2017-09-22 17:00:00 24.5 19 Nordeste 44 Nordeste 0 -- -- 65
2017-09-22 16:00:00 23.7 26 Nordeste 45 Nordeste 0 -- -- 70
2017-09-22 15:00:00 24.2 23 Nordeste 42 Nordeste 0 -- -- 67
2017-09-22 14:00:00 24.5 21 Nordeste 45 Este 0 -- -- 63
2017-09-22 13:00:00 24.7 19 Nordeste 44 Nordeste 0 -- -- 61
2017-09-22 12:00:00 24.5 25 Nordeste 44 Este 0 -- -- 56
2017-09-22 11:00:00 22.7 24 Nordeste 37 Nordeste 0 -- -- 68
2017-09-22 10:00:00 23.5 20 Nordeste 37 Nordeste 0 -- -- 63
2017-09-22 09:00:00 22.1 18 Nordeste 39 Nordeste 0 -- -- 67
2017-09-22 08:00:00 22 17 Nordeste 37 Nordeste 0 -- -- 69
2017-09-22 07:00:00 21.8 22 Nordeste 39 Nordeste 0 -- -- 69
2017-09-22 06:00:00 21.6 15 Nordeste 38 Nordeste 0 -- -- 68
2017-09-22 05:00:00 21.7 17 Nordeste 40 Nordeste 0 -- -- 73
2017-09-22 04:00:00 22 18 Nordeste 33 Nordeste 0 -- -- 74
2017-09-22 03:00:00 21.9 19 Nordeste 45 Este 0 -- -- 71
2017-09-22 02:00:00 21.9 18 Nordeste 36 Nordeste 0.2 -- -- 78
2017-09-22 01:00:00 22.4 20 Nordeste 39 Nordeste 0 -- -- 76
2017-09-22 00:00:00 22.2 18 Nordeste 32 Nordeste 0 -- -- 79
2017-09-21 23:00:00 22.4 15 Nordeste 35 Nordeste 0 -- -- 80
2017-09-21 22:00:00 22.7 20 Norte 37 Norte 0 -- -- 75
2017-09-21 21:00:00 22.9 19 Nordeste 39 Nordeste 0 -- -- 74
2017-09-21 20:00:00 23.1 21 Nordeste 37 Nordeste 0 -- -- 71
2017-09-21 19:00:00 23.6 18 Nordeste 36 Norte 0 -- -- 72
2017-09-21 18:00:00 24.4 19 Nordeste 43 Norte 0 -- -- 68
2017-09-21 17:00:00 24.6 21 Norte 40 Nordeste 0 -- -- 66
2017-09-21 16:00:00 24.6 21 Nordeste 36 Nordeste 0 -- -- 65
2017-09-21 15:00:00 23.8 18 Norte 44 Norte 0 -- -- 73
2017-09-21 14:00:00 24.1 20 Nordeste 37 Norte 0 -- -- 67
2017-09-21 13:00:00 23.8 20 Nordeste 37 Norte 0 -- -- 65
2017-09-21 12:00:00 23.4 13 Nordeste 29 Este 0 -- -- 75
2017-09-21 11:00:00 22 15 Nordeste 31 Este 0 -- -- 81
2017-09-21 10:00:00 22.9 13 Nordeste 25 Nordeste 0 -- -- 76
2017-09-21 09:00:00 22.3 14 Nordeste 25 Este 0 -- -- 76
2017-09-21 08:00:00 21.9 13 Nordeste 21 Nordeste 0 -- -- 78
2017-09-21 07:00:00 21.8 10 Nordeste 26 Este 0 -- -- 78
2017-09-21 06:00:00 22.1 17 Nordeste 28 Nordeste 0 -- -- 75
2017-09-21 05:00:00 22.1 13 Nordeste 28 Nordeste 0 -- -- 77
2017-09-21 04:00:00 22.3 16 Nordeste 30 Nordeste 0 -- -- 75
2017-09-21 03:00:00 21.9 15 Nordeste 24 Nordeste 0 -- -- 82
2017-09-21 02:00:00 22.4 13 Este 26 Nordeste 0 -- -- 77
2017-09-21 01:00:00 22.7 16 Nordeste 27 Nordeste 0 -- -- 74
2017-09-21 00:00:00 22.8 17 Nordeste 29 Nordeste 0 -- -- 74
2017-09-20 23:00:00 22.9 15 Nordeste 30 Nordeste 0 -- -- 70
2017-09-20 22:00:00 22.7 18 Nordeste 31 Nordeste 0 -- -- 76
2017-09-20 21:00:00 22.8 21 Nordeste 34 Nordeste 0 -- -- 73
2017-09-20 20:00:00 23.2 21 Nordeste 39 Norte 0 -- -- 71
2017-09-20 19:00:00 24.1 25 Nordeste 46 Nordeste 0 -- -- 67
2017-09-20 18:00:00 24.9 24 Nordeste 47 Nordeste 0 -- -- 64
2017-09-20 17:00:00 25.5 31 Nordeste 46 Norte 0 -- -- 56
2017-09-20 16:00:00 25.9 30 Nordeste 52 Nordeste 0 -- -- 62
2017-09-20 15:00:00 26.8 21 Norte 54 Nordeste 0 -- -- 58
2017-09-20 14:00:00 26.1 25 Nordeste 48 Nordeste 0 -- -- 59
2017-09-20 13:00:00 25.8 24 Nordeste 46 Nordeste 0 -- -- 63
2017-09-20 12:00:00 24.9 24 Nordeste 44 Nordeste 0 -- -- 65
2017-09-20 11:00:00 23.9 23 Nordeste 39 Nordeste 0 -- -- 70
2017-09-20 10:00:00 23.4 20 Nordeste 40 Nordeste 0 -- -- 73
2017-09-20 09:00:00 22.8 16 Nordeste 35 Nordeste 0 -- -- 72
2017-09-20 08:00:00 22 23 Nordeste 47 Nordeste 0 -- -- 76
2017-09-20 07:00:00 22.1 19 Este 45 Este 0 -- -- 75
2017-09-20 06:00:00 22.7 18 Este 44 Nordeste 0 -- -- 70
2017-09-20 05:00:00 22.7 13 Este 31 Este 0 -- -- 70
2017-09-20 04:00:00 22.8 17 Este 50 Este 0 -- -- 70
2017-09-20 03:00:00 23.3 27 Este 41 Sudeste 0 -- -- 67
2017-09-20 02:00:00 23.3 17 Sudeste 29 Este 0 -- -- 66
2017-09-20 01:00:00 23 23 Sudeste 43 Sudeste 0 -- -- 68
2017-09-20 00:00:00 23.3 24 Sudeste 48 Sudeste 0 -- -- 68